Time;durP1;ratioP1;P1;durP2;ratioP2;P2;SDS_P1;SDS_P2;PMS_P1;PMS_P2;Temp;Humidity;BMP_temperature;BMP_pressure;BME280_temperature;BME280_humidity;BME280_pressure;Samples;Min_cycle;Max_cycle;Signal;HPM_P1;HPM_P2
2023/02/24 00:02:02;;;;;;;35.37;24.10;;;;;;;8.88;100.00;96247.78;5051471;28;20186;-75
2023/02/24 00:04:32;;;;;;;34.77;23.67;;;;;;;8.95;100.00;96243.22;5051116;28;20178;-76
2023/02/24 00:06:58;;;;;;;38.57;24.30;;;;;;;8.91;100.00;96243.91;5052235;28;20190;-76
2023/02/24 00:09:26;;;;;;;35.03;23.60;;;;;;;8.89;100.00;96256.41;5049691;28;20276;-76
2023/02/24 00:11:58;;;;;;;35.13;23.17;;;;;;;8.91;100.00;96247.31;5052062;28;20206;-77
2023/02/24 00:14:25;;;;;;;38.17;24.63;;;;;;;8.82;100.00;96240.03;5051489;28;20193;-76
2023/02/24 00:16:52;;;;;;;34.27;24.57;;;;;;;8.98;100.00;96242.75;5051073;28;20197;-75
2023/02/24 00:19:20;;;;;;;36.30;23.53;;;;;;;8.98;100.00;96252.41;5052179;28;20535;-76
2023/02/24 00:21:46;;;;;;;36.10;24.37;;;;;;;9.01;100.00;96239.69;5054762;28;20607;-75
2023/02/24 00:24:11;;;;;;;38.70;26.10;;;;;;;8.95;100.00;96242.44;5056028;28;20649;-75
2023/02/24 00:26:37;;;;;;;41.90;25.40;;;;;;;8.81;100.00;96249.69;5056403;28;20284;-75
2023/02/24 00:29:07;;;;;;;38.33;25.10;;;;;;;8.77;100.00;96246.75;5055961;28;20197;-76
2023/02/24 00:31:33;;;;;;;35.70;24.63;;;;;;;8.72;100.00;96248.47;5055567;28;20186;-76
2023/02/24 00:34:00;;;;;;;37.20;25.13;;;;;;;8.73;100.00;96242.22;5055738;28;20304;-76
2023/02/24 00:36:28;;;;;;;38.90;26.43;;;;;;;8.61;100.00;96239.59;5055597;28;20193;-73
2023/02/24 00:39:08;;;;;;;45.37;26.97;;;;;;;8.59;100.00;96236.41;5056075;28;20240;-76
2023/02/24 00:41:35;;;;;;;39.13;25.43;;;;;;;8.48;100.00;96236.41;5055758;28;20186;-76
2023/02/24 00:44:08;;;;;;;41.50;26.50;;;;;;;8.55;100.00;96235.28;5055347;28;20185;-74
2023/02/24 00:46:37;;;;;;;43.67;26.53;;;;;;;8.54;100.00;96231.09;5055068;28;20255;-73
2023/02/24 00:49:04;;;;;;;37.53;25.17;;;;;;;8.56;100.00;96233.47;5055664;28;20293;-76
2023/02/24 00:51:34;;;;;;;35.77;24.83;;;;;;;8.58;100.00;96234.81;5055332;28;20673;-76
2023/02/24 00:54:00;;;;;;;36.93;25.33;;;;;;;8.54;100.00;96232.91;5054748;28;20198;-75
2023/02/24 00:56:27;;;;;;;39.80;26.83;;;;;;;8.53;100.00;96231.31;5054968;28;20198;-76
2023/02/24 00:58:54;;;;;;;39.10;23.77;;;;;;;8.72;100.00;96224.94;5055380;28;20190;-77
2023/02/24 01:01:23;;;;;;;36.17;23.87;;;;;;;8.48;100.00;96229.38;5055200;28;20201;-76
2023/02/24 01:03:53;;;;;;;40.57;24.97;;;;;;;8.44;100.00;96223.03;5053706;28;20186;-76
2023/02/24 01:06:20;;;;;;;39.73;23.50;;;;;;;8.47;100.00;96216.56;5054495;28;20730;-73
2023/02/24 01:08:46;;;;;;;38.37;26.57;;;;;;;8.36;100.00;96218.13;5052197;28;20299;-73
2023/02/24 01:14:04;;;;;;;37.83;24.83;;;;;;;8.38;100.00;96216.09;5054814;28;20201;-74
2023/02/24 01:16:30;;;;;;;39.33;24.57;;;;;;;8.41;100.00;96209.63;5054674;28;20190;-74
2023/02/24 01:18:55;;;;;;;43.67;26.40;;;;;;;8.36;100.00;96206.91;5055248;28;20194;-75
2023/02/24 01:21:20;;;;;;;36.83;25.07;;;;;;;8.26;100.00;96207.41;5054665;28;20190;-74
2023/02/24 01:23:50;;;;;;;38.40;24.03;;;;;;;8.39;100.00;96209.84;5054817;28;20197;-76
2023/02/24 01:26:16;;;;;;;38.63;24.20;;;;;;;8.40;100.00;96198.41;5053136;28;20646;-75
2023/02/24 01:28:45;;;;;;;39.93;25.00;;;;;;;8.44;100.00;96204.75;5053064;28;20280;-76
2023/02/24 01:31:11;;;;;;;37.93;24.93;;;;;;;8.47;100.00;96204.28;5054558;28;20198;-79
2023/02/24 01:33:36;;;;;;;36.80;25.77;;;;;;;8.38;100.00;96199.63;5053317;28;20701;-74
2023/02/24 01:36:17;;;;;;;40.03;25.00;;;;;;;8.31;100.00;96195.31;5054302;28;20244;-76
2023/02/24 01:38:44;;;;;;;36.47;24.23;;;;;;;8.26;100.00;96199.59;5053705;28;20512;-74
2023/02/24 01:41:19;;;;;;;34.33;23.70;;;;;;;8.33;100.00;96197.69;5054600;28;20284;-75
2023/02/24 01:44:05;;;;;;;36.37;25.00;;;;;;;8.36;100.00;96191.25;5054286;28;20182;-74
2023/02/24 01:46:32;;;;;;;37.73;25.43;;;;;;;8.23;100.00;96192.22;5054326;28;20256;-75
2023/02/24 01:49:07;;;;;;;36.57;25.83;;;;;;;8.21;100.00;96192.44;5039204;28;20213;-74
2023/02/24 01:51:37;;;;;;;36.67;26.30;;;;;;;8.31;100.00;96186.69;5054197;28;20185;-74
2023/02/24 01:54:04;;;;;;;39.20;27.17;;;;;;;8.18;100.00;96181.66;5053548;28;20666;-74
2023/02/24 01:56:31;;;;;;;40.20;27.03;;;;;;;8.07;100.00;96185.06;5053957;28;20190;-76
2023/02/24 01:58:57;;;;;;;41.47;26.77;;;;;;;8.17;100.00;96180.88;5038467;28;20249;-75
2023/02/24 02:01:23;;;;;;;40.10;27.33;;;;;;;8.20;100.00;96177.78;5053951;28;20639;-74
2023/02/24 02:03:50;;;;;;;40.13;27.00;;;;;;;8.14;100.00;96177.91;5053490;28;20286;-74
2023/02/24 02:06:18;;;;;;;36.87;27.53;;;;;;;8.20;100.00;96184.81;5053567;28;20542;-74
2023/02/24 02:08:44;;;;;;;42.67;29.53;;;;;;;8.24;100.00;96184.16;5050977;28;20288;-74
2023/02/24 02:11:21;;;;;;;44.63;29.47;;;;;;;8.12;100.00;96182.56;5053204;28;20629;-74
2023/02/24 02:13:49;;;;;;;39.60;29.37;;;;;;;8.04;100.00;96183.69;5037613;28;20190;-74
2023/02/24 02:16:35;;;;;;;41.67;28.10;;;;;;;8.13;100.00;96181.56;5053587;28;20196;-74
2023/02/24 02:19:45;;;;;;;37.10;28.10;;;;;;;8.15;100.00;96177.69;5053839;28;20205;-75
2023/02/24 02:22:44;;;;;;;38.80;25.47;;;;;;;7.98;100.00;96173.34;5047729;28;20255;-76
2023/02/24 02:25:38;;;;;;;36.50;25.77;;;;;;;7.80;100.00;96174.25;5039323;28;20646;-76
2023/02/24 02:28:35;;;;;;;35.73;25.07;;;;;;;7.79;100.00;96163.00;5053636;28;20178;-74
2023/02/24 02:31:27;;;;;;;36.33;26.27;;;;;;;7.83;100.00;96158.94;5053398;28;20764;-74
2023/02/24 02:34:22;;;;;;;38.40;26.73;;;;;;;7.87;100.00;96161.88;5053496;28;20291;-74
2023/02/24 02:37:07;;;;;;;39.87;25.37;;;;;;;7.98;100.00;96160.28;5052283;28;20186;-75
2023/02/24 02:40:01;;;;;;;37.87;25.07;;;;;;;7.98;100.00;96160.28;5053530;28;20252;-74
2023/02/24 02:42:29;;;;;;;40.47;26.10;;;;;;;8.15;100.00;96161.22;5052848;28;20223;-74
2023/02/24 02:45:13;;;;;;;36.60;25.97;;;;;;;7.98;100.00;96157.69;5052537;28;20736;-75
2023/02/24 02:47:42;;;;;;;42.97;26.90;;;;;;;8.23;100.00;96163.50;5053396;28;20178;-74
2023/02/24 02:50:42;;;;;;;36.53;25.27;;;;;;;8.03;100.00;96155.19;5053329;28;20856;-74
2023/02/24 02:53:33;;;;;;;40.17;26.87;;;;;;;7.85;100.00;96140.44;5032855;28;20193;-73
2023/02/24 02:56:14;;;;;;;41.07;26.43;;;;;;;7.73;100.00;96139.63;5053162;28;20235;-74
2023/02/24 02:58:46;;;;;;;38.60;25.80;;;;;;;7.75;100.00;96133.16;5052921;28;20186;-74
2023/02/24 03:01:17;;;;;;;40.77;26.30;;;;;;;7.91;100.00;96136.94;5052818;28;20186;-75
2023/02/24 03:03:48;;;;;;;40.70;26.27;;;;;;;7.84;100.00;96131.03;5051733;28;20182;-74
2023/02/24 03:06:25;;;;;;;40.33;26.87;;;;;;;7.77;100.00;96132.94;5052656;28;20194;-75
2023/02/24 03:09:14;;;;;;;43.93;28.03;;;;;;;7.88;100.00;96129.53;5050998;28;20689;-75
2023/02/24 03:11:52;;;;;;;44.50;28.80;;;;;;;7.93;100.00;96127.06;5051823;28;20190;-75
2023/02/24 03:14:23;;;;;;;43.10;27.77;;;;;;;7.94;100.00;96121.63;5040951;28;20174;-74
2023/02/24 03:16:50;;;;;;;45.30;29.10;;;;;;;7.84;100.00;96120.59;5052705;28;20178;-74
2023/02/24 03:19:19;;;;;;;45.47;28.77;;;;;;;7.89;100.00;96124.13;5051398;28;20225;-75
2023/02/24 03:21:56;;;;;;;44.43;28.40;;;;;;;7.92;100.00;96115.81;5052401;28;20678;-74
2023/02/24 03:24:23;;;;;;;50.57;29.77;;;;;;;7.92;100.00;96120.25;5051464;28;20216;-74
2023/02/24 03:26:54;;;;;;;42.10;28.37;;;;;;;7.76;100.00;96115.69;5052886;28;20244;-75
2023/02/24 03:29:49;;;;;;;46.13;29.90;;;;;;;7.91;100.00;96111.63;5052778;28;20210;-74
2023/02/24 03:32:15;;;;;;;48.60;29.90;;;;;;;7.94;100.00;96110.38;5044189;28;20193;-74
2023/02/24 03:34:55;;;;;;;46.77;30.73;;;;;;;8.05;100.00;96100.97;5052297;28;20229;-74
2023/02/24 03:37:25;;;;;;;48.57;30.27;;;;;;;7.80;100.00;96101.97;5052737;28;20200;-74
2023/02/24 03:39:53;;;;;;;39.80;27.70;;;;;;;7.77;100.00;96096.41;5052240;28;20281;-74
2023/02/24 03:42:20;;;;;;;45.60;28.33;;;;;;;7.83;100.00;96104.13;5052677;28;20194;-75
2023/02/24 03:44:47;;;;;;;40.23;28.37;;;;;;;7.78;100.00;96101.41;5052761;28;20277;-75
2023/02/24 03:47:14;;;;;;;43.43;28.40;;;;;;;8.05;100.00;96098.34;5051256;28;20186;-74
2023/02/24 03:49:42;;;;;;;50.40;31.07;;;;;;;7.85;100.00;96104.72;5052212;28;20214;-74
2023/02/24 03:52:33;;;;;;;51.77;31.07;;;;;;;7.87;100.00;96105.28;5052176;28;20254;-74
2023/02/24 03:55:45;;;;;;;41.40;29.10;;;;;;;7.91;100.00;96093.34;5051751;28;20201;-75
2023/02/24 03:58:27;;;;;;;49.53;29.47;;;;;;;7.97;100.00;96106.53;5045876;28;20221;-77
2023/02/24 04:01:04;;;;;;;47.57;29.37;;;;;;;8.02;100.00;96094.41;5054431;28;20209;-75
2023/02/24 04:03:43;;;;;;;43.37;30.27;;;;;;;8.08;100.00;96092.69;5055234;28;20186;-74
2023/02/24 04:06:22;;;;;;;44.60;29.97;;;;;;;8.09;100.00;96097.66;5054322;28;20190;-75
2023/02/24 04:09:14;;;;;;;48.67;30.33;;;;;;;8.05;100.00;96106.19;5054812;28;20255;-75
2023/02/24 04:12:01;;;;;;;43.60;29.10;;;;;;;8.26;100.00;96103.00;5040431;28;20193;-74
2023/02/24 04:14:33;;;;;;;47.80;31.63;;;;;;;8.24;100.00;96105.06;5056179;28;20190;-78
2023/02/24 04:17:07;;;;;;;46.17;30.33;;;;;;;8.20;100.00;96101.28;5055974;28;20210;-75
2023/02/24 04:19:39;;;;;;;42.53;30.63;;;;;;;8.21;100.00;96101.06;5056185;28;20190;-75
2023/02/24 04:22:11;;;;;;;47.43;32.87;;;;;;;8.16;100.00;96103.56;5056318;28;20190;-75
2023/02/24 04:24:39;;;;;;;47.67;32.27;;;;;;;8.15;100.00;96090.75;5056076;28;20193;-75
2023/02/24 04:27:10;;;;;;;47.20;33.77;;;;;;;8.29;100.00;96095.53;5055881;28;20197;-75
2023/02/24 04:29:46;;;;;;;48.50;32.20;;;;;;;8.29;100.00;96086.91;5055430;28;20206;-75
2023/02/24 04:32:14;;;;;;;47.33;30.43;;;;;;;8.22;100.00;96092.22;5054657;28;20688;-75
2023/02/24 04:34:40;;;;;;;51.50;31.27;;;;;;;8.09;100.00;96087.22;5055959;28;20234;-74
2023/02/24 04:37:06;;;;;;;46.90;30.57;;;;;;;8.12;100.00;96089.41;5054093;28;20643;-74
2023/02/24 04:39:32;;;;;;;51.00;31.43;;;;;;;8.08;100.00;96084.88;5055524;28;20240;-75
2023/02/24 04:41:58;;;;;;;48.10;31.93;;;;;;;8.15;100.00;96082.91;5055500;28;20658;-74
2023/02/24 04:44:25;;;;;;;51.00;33.40;;;;;;;7.88;100.00;96079.97;5055781;28;20206;-75
2023/02/24 04:46:50;;;;;;;52.00;33.60;;;;;;;7.67;100.00;96089.16;5055416;28;20198;-75
2023/02/24 04:49:17;;;;;;;57.57;36.17;;;;;;;7.73;100.00;96080.44;5053447;28;20206;-75
2023/02/24 04:51:43;;;;;;;56.27;33.67;;;;;;;7.70;100.00;96069.63;5055336;28;20229;-72
2023/02/24 04:54:17;;;;;;;63.30;36.50;;;;;;;7.79;100.00;96073.53;5054532;28;20213;-74
2023/02/24 04:56:46;;;;;;;57.87;34.50;;;;;;;7.75;100.00;96080.97;5054636;28;20178;-73
2023/02/24 04:59:13;;;;;;;60.80;36.03;;;;;;;7.60;100.00;96072.81;5054842;28;20190;-75
2023/02/24 05:01:41;;;;;;;63.57;35.30;;;;;;;7.63;100.00;96066.38;5053716;28;20209;-73
2023/02/24 05:04:07;;;;;;;60.70;33.50;;;;;;;7.69;100.00;96061.03;5054690;28;20190;-74
2023/02/24 05:06:33;;;;;;;62.33;35.73;;;;;;;7.76;100.00;96056.50;5054984;28;20263;-74
2023/02/24 05:09:00;;;;;;;70.10;35.43;;;;;;;7.65;100.00;96057.28;5051356;28;20257;-74
2023/02/24 05:11:33;;;;;;;67.77;34.67;;;;;;;7.84;100.00;96052.75;5054923;28;20650;-74
2023/02/24 05:13:59;;;;;;;64.87;33.53;;;;;;;7.91;100.00;96051.59;5054924;28;20190;-74
2023/02/24 05:16:27;;;;;;;67.37;34.77;;;;;;;7.99;100.00;96049.69;5054608;28;20240;-74
2023/02/24 05:19:28;;;;;;;69.13;33.77;;;;;;;7.83;100.00;96044.13;5054279;28;20225;-73
2023/02/24 05:21:40;;;;;;;67.50;33.20;;;;;;;7.68;100.00;96041.19;5054754;28;20663;-74
2023/02/24 05:24:06;;;;;;;65.67;33.60;;;;;;;7.81;100.00;96040.16;5054643;28;20277;-74
2023/02/24 05:26:34;;;;;;;60.33;31.63;;;;;;;7.74;100.00;96034.28;5054157;28;20343;-75
2023/02/24 05:29:00;;;;;;;65.93;32.80;;;;;;;7.67;100.00;96031.78;5053330;28;20224;-74
2023/02/24 05:31:28;;;;;;;68.73;32.17;;;;;;;7.68;100.00;96030.75;5054968;28;20222;-74
2023/02/24 05:33:57;;;;;;;65.63;33.20;;;;;;;7.71;100.00;96025.09;5054159;28;20230;-75
2023/02/24 05:36:24;;;;;;;61.83;32.27;;;;;;;7.75;100.00;96018.38;5053869;28;20292;-74
2023/02/24 05:38:56;;;;;;;68.20;33.07;;;;;;;7.64;100.00;96018.38;5053811;28;20210;-74
2023/02/24 05:41:31;;;;;;;66.57;31.33;;;;;;;7.79;100.00;96018.75;5054283;28;20189;-75
2023/02/24 05:43:58;;;;;;;59.13;30.83;;;;;;;7.85;100.00;96012.63;5054495;28;20201;-74
2023/02/24 05:46:28;;;;;;;59.63;31.63;;;;;;;7.90;100.00;96013.53;5054277;28;20200;-74
2023/02/24 05:48:57;;;;;;;68.00;31.67;;;;;;;7.87;100.00;96002.72;5053833;28;20214;-75
2023/02/24 05:51:24;;;;;;;65.83;31.90;;;;;;;7.93;100.00;96005.22;5054369;28;20300;-74
2023/02/24 05:53:54;;;;;;;63.47;32.60;;;;;;;8.02;100.00;96000.47;5053436;28;20198;-74
2023/02/24 05:56:23;;;;;;;63.93;32.80;;;;;;;7.92;100.00;96000.22;5053928;28;20260;-74
2023/02/24 05:59:00;;;;;;;61.60;33.03;;;;;;;7.90;100.00;96003.09;5053283;28;20190;-79
2023/02/24 06:01:33;;;;;;;63.00;32.53;;;;;;;7.90;100.00;95999.69;5053304;28;20178;-77
2023/02/24 06:04:05;;;;;;;62.73;31.67;;;;;;;7.78;100.00;95994.47;5053183;28;20190;-75
2023/02/24 06:06:36;;;;;;;68.47;33.17;;;;;;;7.91;100.00;96001.28;5053617;28;20630;-75
2023/02/24 06:09:09;;;;;;;65.83;32.93;;;;;;;7.93;100.00;95994.78;5051951;28;20245;-75
2023/02/24 06:11:35;;;;;;;66.23;32.70;;;;;;;7.62;100.00;95991.75;5053362;28;20190;-74
2023/02/24 06:14:05;;;;;;;68.17;32.33;;;;;;;7.73;100.00;95994.38;5054062;28;20229;-74
2023/02/24 06:16:31;;;;;;;66.07;31.40;;;;;;;7.70;100.00;95989.59;5054006;28;20186;-74
2023/02/24 06:18:56;;;;;;;66.30;32.67;;;;;;;7.83;100.00;95991.16;5053129;28;20240;-74
2023/02/24 06:21:23;;;;;;;63.93;33.10;;;;;;;7.76;100.00;95991.28;5053723;28;20650;-75
2023/02/24 06:23:48;;;;;;;60.73;32.40;;;;;;;7.70;100.00;95992.19;5053601;28;20193;-74
2023/02/24 06:26:18;;;;;;;63.73;31.93;;;;;;;7.92;100.00;95992.41;5053682;28;20190;-74
2023/02/24 06:28:44;;;;;;;71.13;33.43;;;;;;;7.62;100.00;95991.75;5053476;28;20201;-75
2023/02/24 06:31:12;;;;;;;66.20;31.73;;;;;;;7.74;100.00;95990.75;5053226;28;20194;-74
2023/02/24 06:33:39;;;;;;;66.27;33.80;;;;;;;7.67;100.00;95994.47;5051197;28;20621;-73
2023/02/24 06:36:05;;;;;;;71.13;34.13;;;;;;;7.83;100.00;95988.56;5052861;28;20240;-74
2023/02/24 06:38:35;;;;;;;68.73;33.90;;;;;;;7.83;100.00;95986.75;5051619;28;20202;-74
2023/02/24 06:41:03;;;;;;;61.53;32.90;;;;;;;7.67;100.00;95989.25;5052847;28;20190;-74
2023/02/24 06:43:31;;;;;;;67.63;33.30;;;;;;;7.70;100.00;95983.56;5051310;28;20190;-74
2023/02/24 06:45:56;;;;;;;67.00;33.93;;;;;;;7.74;100.00;95982.91;5053173;28;20204;-73
2023/02/24 06:48:24;;;;;;;70.77;34.43;;;;;;;7.61;100.00;95982.34;5053021;28;20185;-74
2023/02/24 06:50:50;;;;;;;65.83;32.93;;;;;;;7.70;100.00;95986.97;5053108;28;20842;-74
2023/02/24 06:53:17;;;;;;;68.00;32.87;;;;;;;7.69;100.00;95984.63;5052154;28;20212;-75
2023/02/24 06:55:45;;;;;;;69.77;33.83;;;;;;;7.90;100.00;95981.41;5052791;28;20193;-74
2023/02/24 06:58:16;;;;;;;68.83;32.83;;;;;;;7.96;100.00;95977.91;5053027;28;20202;-75
2023/02/24 07:00:55;;;;;;;66.20;32.63;;;;;;;8.02;100.00;95976.19;5053002;28;20194;-74
2023/02/24 07:03:37;;;;;;;75.17;33.77;;;;;;;7.99;100.00;95974.81;5052058;28;20186;-74
2023/02/24 07:06:19;;;;;;;77.83;34.27;;;;;;;8.09;100.00;95982.03;5051654;28;20185;-74
2023/02/24 07:08:47;;;;;;;67.50;33.47;;;;;;;8.08;100.00;95973.41;5050822;28;20232;-75
2023/02/24 07:11:16;;;;;;;70.40;33.17;;;;;;;7.94;100.00;95972.91;5052650;28;20242;-75
2023/02/24 07:13:42;;;;;;;71.73;35.10;;;;;;;7.94;100.00;95974.72;5052949;28;20263;-73
2023/02/24 07:16:10;;;;;;;71.43;35.13;;;;;;;7.90;100.00;95970.97;5052512;28;20198;-73
2023/02/24 07:18:40;;;;;;;67.63;32.17;;;;;;;7.91;100.00;95972.56;5052777;28;20186;-74
2023/02/24 07:21:10;;;;;;;65.17;33.43;;;;;;;7.94;100.00;95965.06;5051628;28;20273;-73
2023/02/24 07:23:38;;;;;;;69.83;33.87;;;;;;;8.18;100.00;95967.63;5051163;28;20240;-73
2023/02/24 07:26:17;;;;;;;68.90;34.57;;;;;;;7.84;100.00;95964.06;5054896;28;20205;-72
2023/02/24 07:28:44;;;;;;;68.43;31.97;;;;;;;7.75;100.00;95966.22;5051661;28;20204;-74
2023/02/24 07:31:12;;;;;;;73.27;34.07;;;;;;;7.98;100.00;95967.19;5052629;28;20205;-73
2023/02/24 07:33:43;;;;;;;72.57;34.43;;;;;;;8.02;100.00;95961.31;5055546;28;20236;-74
2023/02/24 07:36:13;;;;;;;73.13;34.63;;;;;;;8.01;100.00;95962.34;5054166;28;20247;-73
2023/02/24 07:38:43;;;;;;;68.17;33.37;;;;;;;7.87;100.00;95951.34;5056214;28;20221;-73
2023/02/24 07:41:11;;;;;;;72.00;31.37;;;;;;;7.88;100.00;95954.75;5056581;28;20182;-75
2023/02/24 07:43:38;;;;;;;69.93;33.27;;;;;;;7.89;100.00;95956.34;5056073;28;20639;-75
2023/02/24 07:46:13;;;;;;;65.03;33.00;;;;;;;8.04;100.00;95958.47;5056111;28;20185;-73
2023/02/24 07:48:40;;;;;;;72.37;33.23;;;;;;;7.88;100.00;95955.56;5041555;28;20213;-73
2023/02/24 07:51:11;;;;;;;72.20;34.07;;;;;;;7.96;100.00;95962.25;5056574;28;20190;-73
2023/02/24 07:53:39;;;;;;;74.23;33.07;;;;;;;7.98;100.00;95960.16;5056887;28;20519;-74
2023/02/24 07:56:12;;;;;;;76.20;34.70;;;;;;;8.02;100.00;95957.91;5056328;28;20189;-73
2023/02/24 07:58:38;;;;;;;75.10;33.23;;;;;;;7.92;100.00;95953.25;5055801;28;20218;-73
2023/02/24 08:01:07;;;;;;;76.87;34.03;;;;;;;7.86;100.00;95948.97;5055936;28;20639;-74
2023/02/24 08:03:40;;;;;;;75.43;32.27;;;;;;;7.74;100.00;95953.44;5053730;28;20190;-73
2023/02/24 08:06:14;;;;;;;73.53;34.00;;;;;;;7.83;100.00;95955.44;5053969;28;20190;-75
2023/02/24 08:08:56;;;;;;;77.70;33.20;;;;;;;7.78;100.00;95944.91;5050062;28;20200;-73
2023/02/24 08:11:33;;;;;;;70.73;34.10;;;;;;;8.02;100.00;95944.88;5056226;28;20186;-75
2023/02/24 08:14:01;;;;;;;79.33;34.10;;;;;;;7.82;100.00;95945.22;5056665;28;20217;-75
2023/02/24 08:16:38;;;;;;;78.63;35.97;;;;;;;8.02;100.00;95937.84;5055450;28;20280;-74
2023/02/24 08:19:11;;;;;;;70.10;33.47;;;;;;;7.95;100.00;95947.59;5056195;28;20170;-72
2023/02/24 08:21:40;;;;;;;81.80;36.00;;;;;;;8.01;100.00;95938.84;5055412;28;20191;-75
2023/02/24 08:24:16;;;;;;;80.20;35.10;;;;;;;7.95;100.00;95942.38;5056967;28;20194;-74
2023/02/24 08:27:03;;;;;;;72.70;34.43;;;;;;;8.05;100.00;95942.56;5057800;28;20235;-73
2023/02/24 08:29:39;;;;;;;76.20;34.80;;;;;;;8.06;100.00;95938.94;5055857;28;20212;-75
2023/02/24 08:32:08;;;;;;;78.63;36.87;;;;;;;8.25;100.00;95935.13;5066504;28;20239;-75
2023/02/24 08:34:34;;;;;;;80.97;36.30;;;;;;;8.06;100.00;95930.31;5057109;28;20312;-73
2023/02/24 08:37:00;;;;;;;72.80;33.50;;;;;;;8.15;100.00;95927.13;5053831;28;20222;-74
2023/02/24 08:39:29;;;;;;;61.53;31.87;;;;;;;8.41;100.00;95917.19;5055172;28;20236;-74
2023/02/24 08:41:57;;;;;;;54.90;30.13;;;;;;;8.45;100.00;95924.31;5055083;28;20221;-74
2023/02/24 08:44:25;;;;;;;53.67;29.43;;;;;;;8.56;100.00;95917.44;5055275;28;20192;-73
2023/02/24 08:46:53;;;;;;;54.40;29.13;;;;;;;8.71;100.00;95920.31;5055085;28;20190;-75
2023/02/24 08:49:19;;;;;;;47.30;27.17;;;;;;;8.69;100.00;95910.09;5054256;28;20573;-73
2023/02/24 08:51:47;;;;;;;46.10;26.10;;;;;;;8.96;100.00;95914.72;5054368;28;20178;-74
2023/02/24 08:54:16;;;;;;;43.03;27.17;;;;;;;9.30;100.00;95911.06;5053261;28;20198;-74
2023/02/24 08:56:47;;;;;;;38.73;23.40;;;;;;;9.46;100.00;95899.78;5054996;28;20197;-74
2023/02/24 09:02:18;;;;;;;33.57;22.27;;;;;;;9.52;100.00;95898.81;5051120;28;20185;-74
2023/02/24 09:05:04;;;;;;;36.00;24.77;;;;;;;9.86;100.00;95898.72;5053937;28;20698;-74
2023/02/24 09:07:34;;;;;;;33.13;22.00;;;;;;;10.02;100.00;95900.50;5052266;28;20679;-74
2023/02/24 09:10:02;;;;;;;32.47;24.87;;;;;;;10.47;100.00;95894.19;5054171;28;20212;-75
2023/02/24 09:12:29;;;;;;;33.10;22.17;;;;;;;10.76;100.00;95898.09;5054083;28;20224;-73
2023/02/24 09:15:03;;;;;;;30.00;21.33;;;;;;;11.05;100.00;95888.91;5053318;28;20285;-73
2023/02/24 09:17:39;;;;;;;27.30;19.73;;;;;;;11.18;100.00;95885.88;5054556;28;20186;-72
2023/02/24 09:23:01;;;;;;;30.23;17.70;;;;;;;10.72;100.00;95889.97;5054356;28;20185;-74
2023/02/24 09:25:40;;;;;;;23.80;15.80;;;;;;;10.31;100.00;95885.38;5054597;28;20261;-73
2023/02/24 09:28:17;;;;;;;24.80;15.87;;;;;;;10.45;100.00;95888.41;5054758;28;20178;-74
2023/02/24 09:30:52;;;;;;;23.60;15.77;;;;;;;10.32;100.00;95885.13;5053407;28;20662;-74
2023/02/24 09:33:17;;;;;;;25.60;15.90;;;;;;;10.32;100.00;95885.13;5053804;28;20655;-73
2023/02/24 09:35:51;;;;;;;25.23;15.10;;;;;;;10.20;100.00;95881.84;5053959;28;21290;-75
2023/02/24 09:38:56;;;;;;;25.57;14.93;;;;;;;9.94;100.00;95875.53;5047591;28;20198;-74
2023/02/24 09:41:30;;;;;;;20.83;14.20;;;;;;;9.80;100.00;95878.75;5053237;28;20196;-73
2023/02/24 09:44:25;;;;;;;23.90;14.30;;;;;;;9.73;100.00;95875.53;5050133;28;20194;-74
2023/02/24 09:47:07;;;;;;;23.50;13.97;;;;;;;9.74;100.00;95869.28;5034460;28;20736;-74
2023/02/24 09:49:45;;;;;;;21.90;13.30;;;;;;;9.60;100.00;95874.84;5053220;28;20289;-73
2023/02/24 09:52:20;;;;;;;20.20;13.13;;;;;;;9.53;100.00;95870.81;5053601;28;20269;-74
2023/02/24 09:58:03;;;;;;;21.40;12.20;;;;;;;10.03;100.00;95868.00;5053165;28;20236;-73
2023/02/24 10:00:32;;;;;;;23.90;12.80;;;;;;;9.85;100.00;95863.91;5053533;28;20194;-73
2023/02/24 10:03:40;;;;;;;39.23;23.33;;;;;;;9.24;100.00;95864.97;5052571;28;20647;-76
2023/02/24 10:06:19;;;;;;;47.07;27.67;;;;;;;9.00;100.00;95858.31;5053220;28;20662;-73
2023/02/24 10:09:10;;;;;;;42.33;24.63;;;;;;;9.14;100.00;95859.56;5050571;28;20198;-74
2023/02/24 10:12:02;;;;;;;38.40;23.10;;;;;;;9.28;100.00;95857.41;5052139;28;20174;-73
2023/02/24 10:14:39;;;;;;;37.67;22.83;;;;;;;9.59;100.00;95859.38;5053062;28;20623;-73
2023/02/24 10:17:23;;;;;;;37.40;22.60;;;;;;;9.60;100.00;95853.91;5053257;28;20186;-74
2023/02/24 10:20:12;;;;;;;35.40;22.17;;;;;;;9.68;100.00;95855.34;5054337;28;20186;-74
2023/02/24 10:22:59;;;;;;;33.53;20.20;;;;;;;9.53;100.00;95853.31;5044901;28;20190;-75
2023/02/24 10:25:52;;;;;;;27.27;17.97;;;;;;;9.60;100.00;95848.69;5053341;28;20171;-74
2023/02/24 10:28:18;;;;;;;30.53;20.70;;;;;;;9.82;100.00;95846.06;5053438;28;20205;-74
2023/02/24 10:31:02;;;;;;;30.17;18.17;;;;;;;9.84;100.00;95840.59;5052706;28;20210;-74
2023/02/24 10:33:43;;;;;;;26.47;17.40;;;;;;;9.67;100.00;95843.28;5051640;28;20224;-74
2023/02/24 10:36:33;;;;;;;26.20;17.83;;;;;;;10.18;100.00;95841.25;5052317;28;20263;-77
2023/02/24 10:39:24;;;;;;;41.23;24.00;;;;;;;9.52;100.00;95833.44;5053140;28;20196;-74
2023/02/24 10:41:57;;;;;;;43.33;26.37;;;;;;;9.33;100.00;95839.19;5052684;28;20178;-74
2023/02/24 10:44:34;;;;;;;41.97;24.47;;;;;;;9.19;100.00;95844.75;5053044;28;20178;-74
2023/02/24 10:47:12;;;;;;;39.20;24.93;;;;;;;9.00;100.00;95834.81;5052655;28;20213;-74
2023/02/24 10:49:43;;;;;;;40.10;21.70;;;;;;;9.04;100.00;95830.69;5053217;28;20202;-74
2023/02/24 10:52:32;;;;;;;36.53;22.00;;;;;;;8.83;100.00;95829.59;5053288;28;20236;-74
2023/02/24 10:55:07;;;;;;;36.27;21.73;;;;;;;8.58;100.00;95824.75;5051851;28;20225;-74
2023/02/24 10:57:45;;;;;;;30.80;20.93;;;;;;;9.08;100.00;95829.19;5052664;28;20197;-74
2023/02/24 11:03:13;;;;;;;28.10;18.43;;;;;;;9.33;100.00;95813.81;5051555;28;20205;-74
2023/02/24 11:06:06;;;;;;;22.77;14.47;;;;;;;9.38;100.00;95819.13;5037296;28;20231;-74
2023/02/24 11:08:53;;;;;;;23.90;14.33;;;;;;;9.70;100.00;95805.34;5045910;28;20306;-75
2023/02/24 11:11:28;;;;;;;23.90;15.67;;;;;;;9.58;100.00;95805.50;5051432;28;20274;-74
2023/02/24 11:19:48;;;;;;;22.80;15.90;;;;;;;9.72;100.00;95798.06;5051714;28;20252;-74
2023/02/24 11:22:16;;;;;;;23.70;14.40;;;;;;;9.45;100.00;95787.56;5052550;28;20209;-74
2023/02/24 11:24:44;;;;;;;26.70;13.73;;;;;;;9.31;100.00;95783.72;5052658;28;20194;-75
2023/02/24 11:27:11;;;;;;;23.93;16.37;;;;;;;9.56;100.00;95779.59;5052672;28;20197;-74
2023/02/24 11:29:54;;;;;;;24.33;16.60;;;;;;;9.43;100.00;95774.72;5052270;28;20301;-74
2023/02/24 11:32:38;;;;;;;29.07;20.93;;;;;;;9.37;100.00;95773.06;5052419;28;20178;-74
2023/02/24 11:35:11;;;;;;;30.13;16.40;;;;;;;9.42;100.00;95764.50;5051926;28;20287;-75
2023/02/24 11:37:41;;;;;;;30.13;15.90;;;;;;;9.27;100.00;95767.72;5052103;28;20186;-74
2023/02/24 11:40:07;;;;;;;32.77;17.57;;;;;;;9.53;100.00;95763.56;5052146;28;20244;-74
2023/02/24 11:43:08;;;;;;;30.97;17.30;;;;;;;9.37;100.00;95765.22;5052501;28;20194;-74
2023/02/24 11:45:50;;;;;;;38.97;19.63;;;;;;;9.10;100.00;95753.91;5043506;28;20280;-74
2023/02/24 11:48:24;;;;;;;40.63;18.87;;;;;;;9.05;100.00;95752.03;5051852;28;20721;-74
2023/02/24 11:51:00;;;;;;;33.73;21.60;;;;;;;9.14;100.00;95745.34;5051167;28;20296;-74
2023/02/24 11:53:33;;;;;;;39.93;20.97;;;;;;;9.49;100.00;95739.75;5051737;28;20233;-74
2023/02/24 11:56:09;;;;;;;34.03;19.87;;;;;;;9.49;100.00;95725.88;5051699;28;20202;-75
2023/02/24 11:58:43;;;;;;;37.07;20.30;;;;;;;9.84;100.00;95715.78;5052263;28;20182;-74
2023/02/24 12:01:19;;;;;;;40.07;21.10;;;;;;;9.86;100.00;95708.44;5051943;28;20249;-73
2023/02/24 12:03:58;;;;;;;33.17;20.00;;;;;;;9.87;100.00;95701.38;5050678;28;20281;-74
2023/02/24 12:07:12;;;;;;;36.13;20.83;;;;;;;9.92;100.00;95691.75;5041936;28;20635;-74